Time;durP1;ratioP1;P1;durP2;ratioP2;P2;SDS_P1;SDS_P2;PMS_P1;PMS_P2;Temp;Humidity;BMP_temperature;BMP_pressure;BME280_temperature;BME280_humidity;BME280_pressure;Samples;Min_cycle;Max_cycle;Signal;HPM_P1;HPM_P2
2023/03/02 00:02:11;;;;;;;23.50;12.77;;;;;;;;;;5053963;28;20151;-57
2023/03/02 00:04:39;;;;;;;17.10;10.77;;;;;;;;;;5053588;28;20025;-58
2023/03/02 00:07:07;;;;;;;12.00;10.67;;;;;;;;;;5053629;28;20568;-58
2023/03/02 00:09:34;;;;;;;14.60;11.07;;;;;;;;;;5053526;28;20029;-58
2023/03/02 00:12:00;;;;;;;14.00;12.03;;;;;;;;;;5053480;28;20351;-59
2023/03/02 00:14:26;;;;;;;14.73;10.30;;;;;;;;;;5054291;28;20064;-58
2023/03/02 00:16:52;;;;;;;16.87;12.37;;;;;;;;;;5053576;28;20021;-58
2023/03/02 00:19:18;;;;;;;15.40;12.30;;;;;;;;;;5053564;28;20100;-58
2023/03/02 00:21:44;;;;;;;17.57;11.83;;;;;;;;;;5053980;28;20063;-57
2023/03/02 00:24:10;;;;;;;12.73;10.97;;;;;;;;;;5053351;28;20029;-57
2023/03/02 00:26:36;;;;;;;14.93;12.13;;;;;;;;;;5053819;28;20033;-57
2023/03/02 00:29:02;;;;;;;14.30;10.93;;;;;;;;;;5053940;28;20029;-58
2023/03/02 00:31:28;;;;;;;15.17;12.00;;;;;;;;;;5053712;28;20032;-57
2023/03/02 00:33:54;;;;;;;13.37;10.70;;;;;;;;;;5053417;28;20032;-58
2023/03/02 00:36:20;;;;;;;14.53;10.63;;;;;;;;;;5053419;28;20431;-58
2023/03/02 00:38:46;;;;;;;14.33;10.93;;;;;;;;;;5056526;28;20044;-57
2023/03/02 00:41:13;;;;;;;19.83;11.50;;;;;;;;;;5057415;28;20021;-58
2023/03/02 00:43:39;;;;;;;11.93;10.60;;;;;;;;;;5057772;28;20359;-58
2023/03/02 00:46:12;;;;;;;12.80;10.90;;;;;;;;;;5057554;28;20029;-58
2023/03/02 00:48:38;;;;;;;17.43;12.53;;;;;;;;;;5057240;28;20040;-58
2023/03/02 00:51:04;;;;;;;14.27;11.07;;;;;;;;;;5057463;28;20029;-57
2023/03/02 00:53:30;;;;;;;15.07;12.23;;;;;;;;;;5057115;28;20025;-58
2023/03/02 00:55:56;;;;;;;17.70;12.40;;;;;;;;;;5057593;28;20064;-57
2023/03/02 00:58:22;;;;;;;16.97;12.70;;;;;;;;;;5057548;28;20416;-58
2023/03/02 01:00:48;;;;;;;12.37;10.97;;;;;;;;;;5056950;28;20047;-58
2023/03/02 01:03:14;;;;;;;15.90;12.30;;;;;;;;;;5056849;28;20478;-58
2023/03/02 01:05:40;;;;;;;13.73;9.30;;;;;;;;;;5057795;28;20025;-57
2023/03/02 01:08:06;;;;;;;17.40;12.77;;;;;;;;;;5057147;28;20029;-56
2023/03/02 01:10:32;;;;;;;18.63;11.37;;;;;;;;;;5056853;28;20060;-58
2023/03/02 01:12:58;;;;;;;15.50;11.23;;;;;;;;;;5057102;28;20056;-54
2023/03/02 01:15:24;;;;;;;12.20;9.67;;;;;;;;;;5056792;28;20082;-56
2023/03/02 01:17:50;;;;;;;15.00;12.47;;;;;;;;;;5056736;28;20438;-57
2023/03/02 01:20:17;;;;;;;19.90;11.20;;;;;;;;;;5056628;28;20033;-57
2023/03/02 01:22:43;;;;;;;17.03;12.30;;;;;;;;;;5056479;28;20025;-57
2023/03/02 01:25:09;;;;;;;13.30;11.27;;;;;;;;;;5056874;28;20414;-55
2023/03/02 01:27:35;;;;;;;13.60;9.80;;;;;;;;;;5056508;28;20025;-57
2023/03/02 01:30:01;;;;;;;14.40;11.67;;;;;;;;;;5056208;28;20120;-56
2023/03/02 01:32:27;;;;;;;13.47;9.87;;;;;;;;;;5056468;28;20108;-57
2023/03/02 01:34:53;;;;;;;13.83;10.57;;;;;;;;;;5056476;28;20119;-56
2023/03/02 01:37:22;;;;;;;16.60;10.87;;;;;;;;;;5056359;28;20103;-58
2023/03/02 01:39:48;;;;;;;14.20;10.57;;;;;;;;;;5056296;28;20374;-57
2023/03/02 01:42:15;;;;;;;14.50;10.40;;;;;;;;;;5056731;28;20025;-57
2023/03/02 01:44:42;;;;;;;15.47;12.53;;;;;;;;;;5056780;28;20032;-57
2023/03/02 01:47:21;;;;;;;16.70;13.83;;;;;;;;;;5056131;28;20036;-57
2023/03/02 01:50:02;;;;;;;15.57;12.07;;;;;;;;;;5056077;28;20082;-58
2023/03/02 01:52:30;;;;;;;11.53;10.53;;;;;;;;;;5056081;28;20070;-57
2023/03/02 01:54:57;;;;;;;14.23;12.17;;;;;;;;;;5056380;28;20104;-58
2023/03/02 01:57:27;;;;;;;12.90;9.43;;;;;;;;;;5055977;28;20029;-55
2023/03/02 01:59:56;;;;;;;12.33;10.63;;;;;;;;;;5055935;28;20481;-56
2023/03/02 02:02:22;;;;;;;13.80;11.23;;;;;;;;;;5055880;28;20032;-57
2023/03/02 02:04:49;;;;;;;19.87;10.73;;;;;;;;;;5056302;28;20116;-58
2023/03/02 02:07:15;;;;;;;17.50;10.90;;;;;;;;;;5055734;28;20116;-56
2023/03/02 02:09:44;;;;;;;16.90;11.80;;;;;;;;;;5055795;28;20029;-55
2023/03/02 02:12:14;;;;;;;14.90;10.20;;;;;;;;;;5056009;28;21303;-58
2023/03/02 02:14:41;;;;;;;13.00;10.63;;;;;;;;;;5056248;28;20394;-57
2023/03/02 02:17:07;;;;;;;15.23;11.87;;;;;;;;;;5055623;28;20028;-58
2023/03/02 02:19:51;;;;;;;13.53;9.60;;;;;;;;;;5055792;28;20039;-57
2023/03/02 02:22:21;;;;;;;18.17;10.43;;;;;;;;;;5055417;28;20461;-57
2023/03/02 02:24:53;;;;;;;19.77;12.02;;;;;;;;;;5055979;28;20501;-58
2023/03/02 02:27:19;;;;;;;18.73;12.70;;;;;;;;;;5055470;28;20029;-58
2023/03/02 02:29:47;;;;;;;26.17;13.40;;;;;;;;;;5055659;28;20021;-56
2023/03/02 02:32:13;;;;;;;16.50;11.63;;;;;;;;;;5055611;28;20100;-56
2023/03/02 02:34:42;;;;;;;25.90;13.27;;;;;;;;;;5055567;28;20104;-57
2023/03/02 02:37:16;;;;;;;14.73;12.30;;;;;;;;;;5055800;28;20021;-57
2023/03/02 02:39:45;;;;;;;18.17;11.40;;;;;;;;;;5055236;28;20477;-56
2023/03/02 02:42:19;;;;;;;14.20;10.47;;;;;;;;;;5055437;28;20112;-56
2023/03/02 02:44:45;;;;;;;14.37;12.57;;;;;;;;;;5055647;28;20064;-58
2023/03/02 02:47:19;;;;;;;17.07;12.00;;;;;;;;;;5055085;28;20107;-58
2023/03/02 02:49:46;;;;;;;14.83;11.00;;;;;;;;;;5054985;28;20037;-58
2023/03/02 02:52:14;;;;;;;15.57;12.07;;;;;;;;;;5055467;28;20020;-58
2023/03/02 02:54:43;;;;;;;20.63;13.50;;;;;;;;;;5055393;28;20025;-57
2023/03/02 02:57:10;;;;;;;14.67;11.47;;;;;;;;;;5055051;28;20044;-58
2023/03/02 02:59:38;;;;;;;10.40;9.33;;;;;;;;;;5054195;28;20371;-57
2023/03/02 03:02:05;;;;;;;19.33;11.23;;;;;;;;;;5054524;28;20120;-57
2023/03/02 03:04:32;;;;;;;17.80;13.77;;;;;;;;;;5054651;28;20029;-56
2023/03/02 03:06:59;;;;;;;16.33;12.33;;;;;;;;;;5055218;28;20036;-57
2023/03/02 03:09:26;;;;;;;15.77;12.90;;;;;;;;;;5055168;28;20530;-56
2023/03/02 03:11:54;;;;;;;18.30;11.30;;;;;;;;;;5054545;28;20029;-57
2023/03/02 03:14:27;;;;;;;16.10;11.50;;;;;;;;;;5054792;28;20053;-57
2023/03/02 03:16:53;;;;;;;16.67;13.53;;;;;;;;;;5054479;28;20029;-56
2023/03/02 03:19:21;;;;;;;16.13;11.60;;;;;;;;;;5054491;28;20025;-58
2023/03/02 03:21:48;;;;;;;13.90;11.73;;;;;;;;;;5054686;28;20103;-57
2023/03/02 03:24:14;;;;;;;18.13;12.90;;;;;;;;;;5054247;28;20120;-58
2023/03/02 03:26:40;;;;;;;15.00;10.53;;;;;;;;;;5054820;28;20064;-58
2023/03/02 03:29:06;;;;;;;16.73;12.17;;;;;;;;;;5052979;28;20126;-57
2023/03/02 03:31:33;;;;;;;16.17;11.73;;;;;;;;;;5054236;28;20425;-57
2023/03/02 03:33:59;;;;;;;13.87;11.27;;;;;;;;;;5054171;28;20033;-55
2023/03/02 03:36:26;;;;;;;16.00;12.23;;;;;;;;;;5054990;28;20028;-56
2023/03/02 03:38:52;;;;;;;11.47;9.90;;;;;;;;;;5054086;28;20029;-56
2023/03/02 03:41:17;;;;;;;16.77;12.47;;;;;;;;;;5054104;28;20107;-57
2023/03/02 03:43:43;;;;;;;14.80;13.30;;;;;;;;;;5054015;28;20032;-57
2023/03/02 03:46:09;;;;;;;17.43;12.23;;;;;;;;;;5054014;28;20029;-57
2023/03/02 03:48:35;;;;;;;16.50;13.30;;;;;;;;;;5053989;28;20031;-57
2023/03/02 03:51:01;;;;;;;15.97;11.73;;;;;;;;;;5054448;28;20025;-58
2023/03/02 03:53:27;;;;;;;12.50;10.30;;;;;;;;;;5053903;28;20074;-57
2023/03/02 03:55:55;;;;;;;17.90;13.03;;;;;;;;;;5054175;28;20029;-57
2023/03/02 03:58:21;;;;;;;19.07;12.60;;;;;;;;;;5054352;28;20368;-58
2023/03/02 04:00:47;;;;;;;13.30;11.63;;;;;;;;;;5054066;28;20078;-56
2023/03/02 04:03:16;;;;;;;13.10;10.83;;;;;;;;;;5053981;28;20451;-58
2023/03/02 04:05:42;;;;;;;11.73;10.17;;;;;;;;;;5053815;28;20036;-57
2023/03/02 04:08:08;;;;;;;12.17;9.83;;;;;;;;;;5053974;28;20025;-57
2023/03/02 04:10:35;;;;;;;20.90;15.10;;;;;;;;;;5053637;28;20025;-58
2023/03/02 04:13:01;;;;;;;15.80;11.37;;;;;;;;;;5053199;28;20060;-58
2023/03/02 04:15:27;;;;;;;17.63;12.47;;;;;;;;;;5053637;28;20029;-56
2023/03/02 04:17:53;;;;;;;19.17;13.33;;;;;;;;;;5053629;28;20099;-58
2023/03/02 04:20:20;;;;;;;15.43;12.43;;;;;;;;;;5054153;28;20021;-56
2023/03/02 04:22:47;;;;;;;15.57;12.97;;;;;;;;;;5053963;28;20033;-58
2023/03/02 04:25:18;;;;;;;23.40;12.53;;;;;;;;;;5053858;28;20052;-57
2023/03/02 04:27:44;;;;;;;17.23;14.47;;;;;;;;;;5054059;28;20037;-57
2023/03/02 04:30:11;;;;;;;13.43;11.40;;;;;;;;;;5053520;28;20052;-57
2023/03/02 04:32:37;;;;;;;14.43;12.27;;;;;;;;;;5053837;28;20025;-57
2023/03/02 04:35:03;;;;;;;13.50;12.10;;;;;;;;;;5054073;28;20028;-56
2023/03/02 04:37:29;;;;;;;10.93;9.83;;;;;;;;;;5053449;28;20025;-57
2023/03/02 04:39:55;;;;;;;16.83;12.00;;;;;;;;;;5053529;28;20029;-57
2023/03/02 04:42:21;;;;;;;16.13;11.47;;;;;;;;;;5053414;28;20083;-55
2023/03/02 04:44:47;;;;;;;11.87;10.77;;;;;;;;;;5053925;28;20441;-58
2023/03/02 04:47:13;;;;;;;18.00;13.27;;;;;;;;;;5053349;28;20067;-58
2023/03/02 04:49:39;;;;;;;14.27;12.13;;;;;;;;;;5054170;28;20059;-57
2023/03/02 04:52:05;;;;;;;9.77;8.43;;;;;;;;;;5053374;28;20625;-58
2023/03/02 04:54:32;;;;;;;16.23;14.00;;;;;;;;;;5053267;28;20025;-56
2023/03/02 04:56:58;;;;;;;19.33;12.23;;;;;;;;;;5053797;28;20429;-58
2023/03/02 04:59:27;;;;;;;14.87;11.03;;;;;;;;;;5053251;28;20021;-55
2023/03/02 05:01:55;;;;;;;15.97;12.40;;;;;;;;;;5053285;28;20025;-57
2023/03/02 05:04:21;;;;;;;12.77;10.87;;;;;;;;;;5052864;28;20829;-57
2023/03/02 05:06:47;;;;;;;16.60;13.03;;;;;;;;;;5053877;28;20160;-57
2023/03/02 05:09:13;;;;;;;16.47;11.40;;;;;;;;;;5053430;28;20070;-57
2023/03/02 05:11:39;;;;;;;18.73;12.90;;;;;;;;;;5053185;28;20048;-56
2023/03/02 05:14:07;;;;;;;16.53;12.10;;;;;;;;;;5053130;28;20056;-55
2023/03/02 05:16:34;;;;;;;15.70;12.03;;;;;;;;;;5053462;28;20370;-54
2023/03/02 05:19:01;;;;;;;11.03;8.97;;;;;;;;;;5053134;28;20100;-56
2023/03/02 05:21:27;;;;;;;18.57;14.27;;;;;;;;;;5053650;28;20025;-57
2023/03/02 05:23:53;;;;;;;21.20;11.90;;;;;;;;;;5054494;28;20025;-54
2023/03/02 05:26:19;;;;;;;12.73;9.83;;;;;;;;;;5057056;28;20036;-57
2023/03/02 05:28:45;;;;;;;20.63;13.77;;;;;;;;;;5056668;28;20459;-54
2023/03/02 05:31:22;;;;;;;17.07;13.03;;;;;;;;;;5056592;28;20360;-56
2023/03/02 05:33:48;;;;;;;14.30;9.57;;;;;;;;;;5056522;28;20413;-57
2023/03/02 05:36:14;;;;;;;16.37;14.23;;;;;;;;;;5055580;28;20029;-55
2023/03/02 05:38:40;;;;;;;16.53;12.77;;;;;;;;;;5056396;28;20028;-56
2023/03/02 05:41:06;;;;;;;14.03;12.10;;;;;;;;;;5056418;28;20107;-57
2023/03/02 05:43:32;;;;;;;20.60;16.33;;;;;;;;;;5056222;28;20029;-55
2023/03/02 05:45:59;;;;;;;20.50;15.17;;;;;;;;;;5056270;28;20060;-57
2023/03/02 05:48:28;;;;;;;20.63;13.17;;;;;;;;;;5056652;28;20413;-56
2023/03/02 05:50:54;;;;;;;20.83;13.70;;;;;;;;;;5056483;28;20100;-57
2023/03/02 05:53:20;;;;;;;22.70;14.33;;;;;;;;;;5056630;28;20029;-56
2023/03/02 05:55:46;;;;;;;16.37;11.73;;;;;;;;;;5056472;28;20071;-56
2023/03/02 05:58:14;;;;;;;16.67;12.10;;;;;;;;;;5055806;28;20112;-57
2023/03/02 06:00:40;;;;;;;12.47;11.10;;;;;;;;;;5056030;28;20036;-55
2023/03/02 06:03:07;;;;;;;21.47;12.17;;;;;;;;;;5055859;28;20025;-57
2023/03/02 06:05:33;;;;;;;17.47;11.03;;;;;;;;;;5055932;28;20104;-57
2023/03/02 06:07:59;;;;;;;17.23;12.77;;;;;;;;;;5055798;28;20481;-59
2023/03/02 06:10:25;;;;;;;19.77;12.97;;;;;;;;;;5055791;28;20117;-56
2023/03/02 06:12:51;;;;;;;13.97;10.20;;;;;;;;;;5055938;28;20041;-57
2023/03/02 06:15:17;;;;;;;15.63;12.67;;;;;;;;;;5055645;28;20442;-56
2023/03/02 06:17:43;;;;;;;20.90;12.03;;;;;;;;;;5055642;28;20025;-54
2023/03/02 06:20:09;;;;;;;15.07;10.90;;;;;;;;;;5055692;28;20105;-57
2023/03/02 06:22:45;;;;;;;14.83;12.03;;;;;;;;;;5055423;28;20037;-58
2023/03/02 06:25:13;;;;;;;15.47;10.77;;;;;;;;;;5055864;28;20116;-55
2023/03/02 06:27:39;;;;;;;16.97;10.27;;;;;;;;;;5055492;28;20036;-56
2023/03/02 06:30:05;;;;;;;15.17;12.40;;;;;;;;;;5055390;28;20084;-52
2023/03/02 06:32:33;;;;;;;20.57;13.10;;;;;;;;;;5055356;28;20072;-54
2023/03/02 06:35:02;;;;;;;18.10;12.43;;;;;;;;;;5055584;28;20063;-54
2023/03/02 06:37:28;;;;;;;16.37;12.20;;;;;;;;;;5055801;28;20048;-57
2023/03/02 06:39:55;;;;;;;14.70;9.87;;;;;;;;;;5055546;28;20029;-56
2023/03/02 06:42:21;;;;;;;15.00;12.97;;;;;;;;;;5055149;28;20021;-56
2023/03/02 06:44:47;;;;;;;16.77;12.67;;;;;;;;;;5055476;28;20033;-56
2023/03/02 06:47:13;;;;;;;14.17;10.33;;;;;;;;;;5055054;28;20116;-56
2023/03/02 06:49:39;;;;;;;18.43;13.60;;;;;;;;;;5055036;28;20105;-56
2023/03/02 06:52:06;;;;;;;13.57;9.90;;;;;;;;;;5055011;28;20031;-53
2023/03/02 06:54:32;;;;;;;15.40;12.07;;;;;;;;;;5055279;28;20033;-55
2023/03/02 06:56:58;;;;;;;14.57;12.27;;;;;;;;;;5055157;28;20036;-54
2023/03/02 06:59:24;;;;;;;16.57;13.20;;;;;;;;;;5055422;28;20425;-55
2023/03/02 07:01:53;;;;;;;21.33;14.63;;;;;;;;;;5054744;28;20124;-55
2023/03/02 07:04:19;;;;;;;13.60;9.47;;;;;;;;;;5054635;28;20036;-56
2023/03/02 07:06:45;;;;;;;20.77;12.13;;;;;;;;;;5055016;28;20051;-56
2023/03/02 07:09:11;;;;;;;14.97;11.67;;;;;;;;;;5054396;28;20028;-57
2023/03/02 07:11:37;;;;;;;18.63;12.47;;;;;;;;;;5054413;28;20025;-55
2023/03/02 07:14:03;;;;;;;11.43;9.67;;;;;;;;;;5054664;28;20049;-54
2023/03/02 07:16:30;;;;;;;15.80;12.37;;;;;;;;;;5054619;28;20121;-56
2023/03/02 07:18:56;;;;;;;13.50;11.47;;;;;;;;;;5054395;28;20035;-51
2023/03/02 07:21:22;;;;;;;12.50;11.27;;;;;;;;;;5054445;28;20052;-54
2023/03/02 07:23:48;;;;;;;26.63;12.03;;;;;;;;;;5054340;28;20115;-51
2023/03/02 07:26:14;;;;;;;11.43;10.30;;;;;;;;;;5054333;28;20478;-55
2023/03/02 07:28:40;;;;;;;14.50;11.40;;;;;;;;;;5054294;28;20052;-55
2023/03/02 07:31:07;;;;;;;12.53;11.07;;;;;;;;;;5054998;28;20026;-53
2023/03/02 07:33:33;;;;;;;16.50;11.60;;;;;;;;;;5054749;28;20025;-55
2023/03/02 07:35:59;;;;;;;17.77;12.13;;;;;;;;;;5054492;28;20074;-56
2023/03/02 07:38:25;;;;;;;15.67;10.17;;;;;;;;;;5054447;28;20055;-53
2023/03/02 07:40:51;;;;;;;14.43;11.00;;;;;;;;;;5053798;28;20332;-53
2023/03/02 07:43:17;;;;;;;42.40;10.77;;;;;;;;;;5054468;28;20044;-50
2023/03/02 07:45:44;;;;;;;24.47;11.30;;;;;;;;;;5054352;28;20032;-52
2023/03/02 07:48:09;;;;;;;15.00;11.83;;;;;;;;;;5054285;28;20410;-56
2023/03/02 07:50:35;;;;;;;12.27;9.23;;;;;;;;;;5052789;28;20086;-53
2023/03/02 07:53:01;;;;;;;21.53;13.37;;;;;;;;;;5053834;28;20025;-54
2023/03/02 07:55:27;;;;;;;15.00;11.57;;;;;;;;;;5054135;28;20452;-52
2023/03/02 07:57:53;;;;;;;13.93;12.43;;;;;;;;;;5053730;28;20429;-51
2023/03/02 08:00:20;;;;;;;16.50;12.20;;;;;;;;;;5053763;28;20031;-53
2023/03/02 08:02:46;;;;;;;16.13;12.93;;;;;;;;;;5054275;28;20355;-55
2023/03/02 08:05:12;;;;;;;15.97;10.93;;;;;;;;;;5053974;28;20025;-53
2023/03/02 08:07:39;;;;;;;16.83;8.60;;;;;;;;;;5054145;28;20131;-54
2023/03/02 08:10:05;;;;;;;16.67;12.30;;;;;;;;;;5053662;28;20027;-53
2023/03/02 08:12:31;;;;;;;15.80;11.50;;;;;;;;;;5053659;28;20033;-53
2023/03/02 08:14:57;;;;;;;15.80;11.83;;;;;;;;;;5054041;28;20052;-52
2023/03/02 08:17:23;;;;;;;14.53;10.53;;;;;;;;;;5053370;28;20115;-51
2023/03/02 08:19:49;;;;;;;12.33;10.77;;;;;;;;;;5053563;28;20074;-55
2023/03/02 08:22:15;;;;;;;13.13;10.70;;;;;;;;;;5053452;28;20039;-54
2023/03/02 08:24:42;;;;;;;20.23;13.33;;;;;;;;;;5053725;28;20025;-53
2023/03/02 08:27:11;;;;;;;11.43;9.17;;;;;;;;;;5053390;28;20036;-55
2023/03/02 08:29:37;;;;;;;14.40;10.73;;;;;;;;;;5053310;28;20036;-56
2023/03/02 08:32:03;;;;;;;17.13;11.17;;;;;;;;;;5053378;28;20391;-54
2023/03/02 08:34:29;;;;;;;20.33;12.13;;;;;;;;;;5053711;28;20091;-56
2023/03/02 08:36:55;;;;;;;11.50;8.80;;;;;;;;;;5053710;28;20467;-57
2023/03/02 08:39:22;;;;;;;15.57;12.13;;;;;;;;;;5053662;28;20025;-56
2023/03/02 08:41:51;;;;;;;13.53;10.57;;;;;;;;;;5053143;28;20029;-56
2023/03/02 08:44:19;;;;;;;17.07;12.43;;;;;;;;;;5053407;28;20485;-56
2023/03/02 08:46:45;;;;;;;15.40;12.23;;;;;;;;;;5053336;28;20094;-56
2023/03/02 08:49:11;;;;;;;17.17;11.97;;;;;;;;;;5053651;28;20025;-56
2023/03/02 08:51:37;;;;;;;21.60;13.60;;;;;;;;;;5053263;28;20045;-56
2023/03/02 08:54:03;;;;;;;19.70;12.00;;;;;;;;;;5053333;28;20021;-56
2023/03/02 08:56:31;;;;;;;15.23;9.53;;;;;;;;;;5053581;28;20059;-53
2023/03/02 08:59:01;;;;;;;16.08;11.68;;;;;;;;;;5055116;28;20025;-54
2023/03/02 09:01:31;;;;;;;16.63;12.73;;;;;;;;;;5057220;28;20036;-56
2023/03/02 09:03:59;;;;;;;13.65;11.00;;;;;;;;;;5057057;28;20477;-57
2023/03/02 09:06:25;;;;;;;14.07;10.60;;;;;;;;;;5057930;28;20116;-55
2023/03/02 09:08:51;;;;;;;17.60;12.00;;;;;;;;;;5056998;28;20029;-56
2023/03/02 09:11:17;;;;;;;15.55;12.32;;;;;;;;;;5056796;28;20025;-57
2023/03/02 09:13:43;;;;;;;16.40;12.30;;;;;;;;;;5057573;28;20064;-55
2023/03/02 09:16:10;;;;;;;18.83;11.88;;;;;;;;;;5056787;28;20037;-54
2023/03/02 09:18:36;;;;;;;12.65;10.38;;;;;;;;;;5056686;28;20060;-55
2023/03/02 09:21:02;;;;;;;14.57;10.73;;;;;;;;;;5056223;28;20067;-56
2023/03/02 09:23:28;;;;;;;18.92;11.05;;;;;;;;;;5056389;28;20029;-56
2023/03/02 09:25:55;;;;;;;12.55;9.65;;;;;;;;;;5057060;28;20032;-55
2023/03/02 09:28:21;;;;;;;18.00;12.10;;;;;;;;;;5056911;28;20025;-55
2023/03/02 09:30:48;;;;;;;12.13;9.13;;;;;;;;;;5056557;28;20025;-55
2023/03/02 09:33:14;;;;;;;21.10;11.02;;;;;;;;;;5056581;28;20072;-54
2023/03/02 09:35:40;;;;;;;13.73;10.98;;;;;;;;;;5056794;28;20025;-55
2023/03/02 09:38:06;;;;;;;14.25;10.90;;;;;;;;;;5056407;28;20096;-55
2023/03/02 09:40:32;;;;;;;10.85;8.93;;;;;;;;;;5056729;28;20409;-55
2023/03/02 09:43:03;;;;;;;17.70;11.23;;;;;;;;;;5056350;28;20060;-54
2023/03/02 09:45:39;;;;;;;15.60;9.18;;;;;;;;;;5056882;28;20413;-56
2023/03/02 09:48:14;;;;;;;13.93;10.10;;;;;;;;;;5056765;28;20048;-56
2023/03/02 09:50:42;;;;;;;14.60;11.32;;;;;;;;;;5055933;28;20036;-53
2023/03/02 09:53:08;;;;;;;13.82;10.07;;;;;;;;;;5056676;28;20032;-56
2023/03/02 09:55:35;;;;;;;15.13;10.30;;;;;;;;;;5056216;28;20029;-53
2023/03/02 09:58:06;;;;;;;13.90;12.30;;;;;;;;;;5056132;28;20029;-55
2023/03/02 10:00:35;;;;;;;16.30;10.80;;;;;;;;;;5056043;28;20438;-56
2023/03/02 10:03:02;;;;;;;13.95;12.05;;;;;;;;;;5055662;28;20443;-56
2023/03/02 10:05:30;;;;;;;14.35;10.60;;;;;;;;;;5055815;28;20043;-55
2023/03/02 10:07:56;;;;;;;13.85;10.13;;;;;;;;;;5055670;28;20409;-55
2023/03/02 10:10:23;;;;;;;21.10;11.00;;;;;;;;;;5055263;28;20032;-56
2023/03/02 10:12:52;;;;;;;20.23;10.55;;;;;;;;;;5055590;28;20056;-57
2023/03/02 10:15:36;;;;;;;14.60;12.00;;;;;;;;;;5055393;28;20036;-58
2023/03/02 10:18:12;;;;;;;16.75;10.73;;;;;;;;;;5055996;28;20090;-54
2023/03/02 10:20:47;;;;;;;14.93;8.98;;;;;;;;;;5055933;28;20029;-58
2023/03/02 10:23:27;;;;;;;19.48;12.43;;;;;;;;;;5055176;28;20031;-55
2023/03/02 10:26:13;;;;;;;16.80;11.45;;;;;;;;;;5055291;28;20033;-58
2023/03/02 10:28:48;;;;;;;14.38;10.30;;;;;;;;;;5056443;28;20029;-53
2023/03/02 10:31:18;;;;;;;16.08;11.50;;;;;;;;;;5056145;28;20324;-56
2023/03/02 10:33:44;;;;;;;18.50;10.80;;;;;;;;;;5055428;28;20446;-54
2023/03/02 10:36:19;;;;;;;21.65;10.75;;;;;;;;;;5055920;28;20021;-57
2023/03/02 10:38:46;;;;;;;18.63;13.65;;;;;;;;;;5055707;28;20103;-55
2023/03/02 10:41:16;;;;;;;25.10;13.30;;;;;;;;;;5055454;28;20021;-54
2023/03/02 10:43:45;;;;;;;15.50;11.03;;;;;;;;;;5056014;28;20029;-55
2023/03/02 10:46:12;;;;;;;16.23;10.43;;;;;;;;;;5055728;28;20259;-58
2023/03/02 10:48:59;;;;;;;17.60;11.55;;;;;;;;;;5055030;28;20029;-53
2023/03/02 10:51:27;;;;;;;27.15;13.18;;;;;;;;;;5054926;28;20497;-56
2023/03/02 10:54:12;;;;;;;13.60;11.32;;;;;;;;;;5053698;28;20047;-56
2023/03/02 10:56:38;;;;;;;11.63;9.80;;;;;;;;;;5054707;28;20470;-55
2023/03/02 10:59:22;;;;;;;18.00;13.13;;;;;;;;;;5055084;28;20467;-55
2023/03/02 11:01:57;;;;;;;14.52;11.93;;;;;;;;;;5054825;28;20028;-57
2023/03/02 11:04:23;;;;;;;12.00;9.82;;;;;;;;;;5055148;28;20032;-55
2023/03/02 11:06:49;;;;;;;22.80;12.23;;;;;;;;;;5055365;28;20355;-57
2023/03/02 11:09:15;;;;;;;18.00;12.48;;;;;;;;;;5055286;28;20032;-55
2023/03/02 11:11:48;;;;;;;18.08;12.27;;;;;;;;;;5054555;28;20022;-56
2023/03/02 11:14:15;;;;;;;19.40;10.90;;;;;;;;;;5054612;28;20055;-56
2023/03/02 11:16:41;;;;;;;15.10;10.95;;;;;;;;;;5054286;28;20025;-56
2023/03/02 11:19:13;;;;;;;14.10;10.77;;;;;;;;;;5054764;28;20041;-56
2023/03/02 11:21:42;;;;;;;17.42;12.55;;;;;;;;;;5053700;28;20029;-56
2023/03/02 11:24:14;;;;;;;13.45;10.15;;;;;;;;;;5053852;28;20090;-50
2023/03/02 11:26:46;;;;;;;19.75;12.82;;;;;;;;;;5054991;28;20398;-55
2023/03/02 11:29:12;;;;;;;15.57;11.55;;;;;;;;;;5054556;28;20033;-57
2023/03/02 11:31:43;;;;;;;18.60;12.48;;;;;;;;;;5054267;28;20058;-58
2023/03/02 11:34:26;;;;;;;20.30;11.45;;;;;;;;;;5054277;28;20037;-56
2023/03/02 11:37:01;;;;;;;15.30;12.52;;;;;;;;;;5054844;28;20375;-57
2023/03/02 11:39:45;;;;;;;17.38;10.80;;;;;;;;;;5054696;28;20033;-57
2023/03/02 11:42:18;;;;;;;16.40;12.45;;;;;;;;;;5054075;28;20025;-57
2023/03/02 11:44:45;;;;;;;24.92;11.18;;;;;;;;;;5054718;28;20029;-57
2023/03/02 11:47:11;;;;;;;16.60;12.18;;;;;;;;;;5054055;28;20025;-58
2023/03/02 11:49:40;;;;;;;17.17;12.27;;;;;;;;;;5054050;28;20021;-56
2023/03/02 11:52:09;;;;;;;15.23;10.52;;;;;;;;;;5054432;28;20013;-57
2023/03/02 11:54:44;;;;;;;12.35;10.70;;;;;;;;;;5053941;28;20139;-55
2023/03/02 11:57:22;;;;;;;18.80;12.30;;;;;;;;;;5054253;28;20366;-58
2023/03/02 11:59:48;;;;;;;18.65;12.07;;;;;;;;;;5053762;28;20417;-53
2023/03/02 12:02:15;;;;;;;19.23;11.45;;;;;;;;;;5054243;28;20471;-56
2023/03/02 12:04:41;;;;;;;16.40;11.38;;;;;;;;;;5054226;28;20565;-57
2023/03/02 12:07:21;;;;;;;14.13;11.32;;;;;;;;;;5054137;28;20433;-57
2023/03/02 12:09:58;;;;;;;14.30;11.90;;;;;;;;;;5053898;28;20464;-51
2023/03/02 12:12:31;;;;;;;14.93;11.40;;;;;;;;;;5053924;28;20025;-56
2023/03/02 12:14:57;;;;;;;19.45;12.25;;;;;;;;;;5054087;28;20040;-55
2023/03/02 12:17:26;;;;;;;15.95;12.45;;;;;;;;;;5053946;28;20029;-55
2023/03/02 12:19:53;;;;;;;18.77;11.02;;;;;;;;;;5053518;28;20387;-56
2023/03/02 12:22:29;;;;;;;18.65;12.82;;;;;;;;;;5053871;28;20056;-54
2023/03/02 12:25:00;;;;;;;17.55;13.13;;;;;;;;;;5053986;28;20036;-57
2023/03/02 12:27:26;;;;;;;;;;;;;;;;;;5054417;28;20371;-57
2023/03/02 12:29:57;;;;;;;17.67;12.48;;;;;;;;;;5053350;28;19911;-56
2023/03/02 12:32:30;;;;;;;13.98;11.43;;;;;;;;;;5054401;28;20126;-58
2023/03/02 12:34:56;;;;;;;17.65;12.55;;;;;;;;;;5057841;28;20033;-58
2023/03/02 12:37:30;;;;;;;14.15;10.30;;;;;;;;;;5057370;28;20029;-56
2023/03/02 12:40:14;;;;;;;18.45;13.35;;;;;;;;;;5057722;28;20025;-56
2023/03/02 12:42:53;;;;;;;20.73;12.82;;;;;;;;;;5057649;28;20032;-58
2023/03/02 12:45:22;;;;;;;15.57;12.30;;;;;;;;;;5057820;28;20029;-58
2023/03/02 12:47:50;;;;;;;19.27;11.40;;;;;;;;;;5057733;28;20463;-58
2023/03/02 12:50:29;;;;;;;15.10;10.15;;;;;;;;;;5057321;28;20025;-57
2023/03/02 12:52:59;;;;;;;16.92;11.38;;;;;;;;;;5057735;28;20025;-57
2023/03/02 12:55:25;;;;;;;15.48;10.65;;;;;;;;;;5057327;28;20382;-58
2023/03/02 12:57:53;;;;;;;17.98;11.20;;;;;;;;;;5057500;28;20078;-57
2023/03/02 13:00:24;;;;;;;17.02;12.00;;;;;;;;;;5057541;28;20021;-58
2023/03/02 13:02:51;;;;;;;15.27;10.38;;;;;;;;;;5057074;28;20112;-57
2023/03/02 13:05:22;;;;;;;14.85;10.65;;;;;;;;;;5057387;28;20025;-57
2023/03/02 13:08:02;;;;;;;23.10;11.55;;;;;;;;;;5056960;28;20033;-57
2023/03/02 13:10:30;;;;;;;16.10;11.25;;;;;;;;;;5057030;28;20071;-57
2023/03/02 13:12:57;;;;;;;18.42;11.85;;;;;;;;;;5056715;28;20477;-57
2023/03/02 13:15:23;;;;;;;11.27;9.52;;;;;;;;;;5057438;28;20033;-59
2023/03/02 13:17:57;;;;;;;13.65;10.70;;;;;;;;;;5057174;28;20418;-56
2023/03/02 13:20:24;;;;;;;14.65;10.88;;;;;;;;;;5056756;28;20029;-56
2023/03/02 13:22:50;;;;;;;16.27;10.65;;;;;;;;;;5056723;28;20021;-57
2023/03/02 13:25:21;;;;;;;17.88;12.10;;;;;;;;;;5057058;28;20040;-55
2023/03/02 13:27:59;;;;;;;14.40;11.55;;;;;;;;;;5056706;28;20025;-57
2023/03/02 13:30:30;;;;;;;15.70;11.00;;;;;;;;;;5057328;28;20045;-56
2023/03/02 13:33:02;;;;;;;17.30;11.10;;;;;;;;;;5056769;28;20021;-57
2023/03/02 13:35:29;;;;;;;16.77;11.65;;;;;;;;;;5055580;28;20116;-54
2023/03/02 13:38:03;;;;;;;14.88;10.27;;;;;;;;;;5056951;28;20028;-55
2023/03/02 13:40:32;;;;;;;15.00;10.25;;;;;;;;;;5056538;28;20017;-57
2023/03/02 13:42:58;;;;;;;12.55;9.10;;;;;;;;;;5056565;28;20021;-56
2023/03/02 13:45:28;;;;;;;14.63;9.90;;;;;;;;;;5055556;28;20482;-56
2023/03/02 13:47:55;;;;;;;15.52;10.82;;;;;;;;;;5056803;28;20029;-56
2023/03/02 13:50:23;;;;;;;13.55;10.52;;;;;;;;;;5056672;28;20029;-54
2023/03/02 13:52:49;;;;;;;13.70;9.00;;;;;;;;;;5057010;28;20456;-53
2023/03/02 13:55:17;;;;;;;15.82;10.50;;;;;;;;;;5056457;28;20043;-55
2023/03/02 13:57:46;;;;;;;13.38;10.45;;;;;;;;;;5056066;28;20029;-54
2023/03/02 14:00:18;;;;;;;13.52;9.82;;;;;;;;;;5056031;28;20029;-56
2023/03/02 14:02:44;;;;;;;9.90;8.80;;;;;;;;;;5055994;28;20025;-55
2023/03/02 14:05:17;;;;;;;12.20;9.98;;;;;;;;;;5056428;28;20033;-56
2023/03/02 14:07:43;;;;;;;15.85;10.07;;;;;;;;;;5056170;28;20106;-57
2023/03/02 14:10:10;;;;;;;13.55;9.23;;;;;;;;;;5056261;28;20033;-56
2023/03/02 14:12:36;;;;;;;11.98;9.40;;;;;;;;;;5055506;28;20021;-56
2023/03/02 14:15:03;;;;;;;15.90;10.70;;;;;;;;;;5055910;28;20085;-57
2023/03/02 14:17:29;;;;;;;15.77;10.85;;;;;;;;;;5056248;28;20095;-56
2023/03/02 14:19:56;;;;;;;19.73;10.98;;;;;;;;;;5055571;28;20438;-56
2023/03/02 14:22:23;;;;;;;19.58;12.05;;;;;;;;;;5055643;28;20040;-55
2023/03/02 14:24:49;;;;;;;13.30;11.48;;;;;;;;;;5054170;28;20064;-56